Time;durP1;ratioP1;P1;durP2;ratioP2;P2;SDS_P1;SDS_P2;PMS_P1;PMS_P2;Temp;Humidity;BMP_temperature;BMP_pressure;BME280_temperature;BME280_humidity;BME280_pressure;Samples;Min_cycle;Max_cycle;Signal;HPM_P1;HPM_P2
2022/04/01 00:01:39;;;;;;;21.40;15.53;;;7.20;93.20;;;;;;5059499;28;20579;-48
2022/04/01 00:04:06;;;;;;;20.63;16.77;;;7.20;93.40;;;;;;5056880;28;20545;-49
2022/04/01 00:06:33;;;;;;;22.03;15.57;;;7.20;93.50;;;;;;5060949;28;20482;-49
2022/04/01 00:09:02;;;;;;;17.33;14.30;;;7.20;93.50;;;;;;5061852;28;20473;-49
2022/04/01 00:11:30;;;;;;;18.23;14.83;;;7.20;93.40;;;;;;5064326;28;20476;-49
2022/04/01 00:13:58;;;;;;;21.53;14.83;;;7.20;93.10;;;;;;5062473;28;20492;-50
2022/04/01 00:16:25;;;;;;;19.97;15.90;;;7.20;93.30;;;;;;5064269;28;20556;-49
2022/04/01 00:18:52;;;;;;;21.87;16.10;;;7.20;93.40;;;;;;5061768;28;20481;-49
2022/04/01 00:21:20;;;;;;;23.13;15.80;;;7.20;93.10;;;;;;5052960;28;21089;-49
2022/04/01 00:23:47;;;;;;;26.43;17.20;;;7.20;93.40;;;;;;5049006;28;20489;-49
2022/04/01 00:26:16;;;;;;;22.90;17.33;;;7.20;93.40;;;;;;5060198;28;20522;-49
2022/04/01 00:28:43;;;;;;;20.30;14.50;;;7.30;93.30;;;;;;5063925;28;21256;-49
2022/04/01 00:31:11;;;;;;;22.03;15.73;;;7.30;93.50;;;;;;5062723;28;20582;-48
2022/04/01 00:33:38;;;;;;;25.17;16.60;;;7.30;93.50;;;;;;5060680;28;20485;-48
2022/04/01 00:36:06;;;;;;;22.13;16.10;;;7.30;93.50;;;;;;5062495;28;20804;-49
2022/04/01 00:38:34;;;;;;;20.97;15.80;;;7.30;93.60;;;;;;5064003;28;21128;-48
2022/04/01 00:41:01;;;;;;;23.27;17.60;;;7.20;93.40;;;;;;5025437;28;20498;-49
2022/04/01 00:43:32;;;;;;;23.60;17.10;;;7.20;93.70;;;;;;5060913;28;20482;-49
2022/04/01 00:45:59;;;;;;;22.77;17.17;;;7.20;93.70;;;;;;5063098;28;20490;-49
2022/04/01 00:48:27;;;;;;;23.50;16.70;;;7.20;93.40;;;;;;5051214;28;20575;-49
2022/04/01 00:50:55;;;;;;;18.80;15.23;;;7.20;93.70;;;;;;5062086;28;20819;-49
2022/04/01 00:53:23;;;;;;;23.33;15.60;;;7.10;93.60;;;;;;5062347;28;20576;-50
2022/04/01 00:55:51;;;;;;;22.27;15.13;;;7.10;93.60;;;;;;5060303;28;20485;-49
2022/04/01 00:58:20;;;;;;;21.13;14.87;;;7.10;93.80;;;;;;5063435;28;20480;-49
2022/04/01 01:00:49;;;;;;;23.00;17.53;;;7.10;93.60;;;;;;5059759;28;20471;-49
2022/04/01 01:03:17;;;;;;;24.60;16.43;;;7.10;93.40;;;;;;5058443;28;21528;-49
2022/04/01 01:05:44;;;;;;;23.67;18.67;;;7.10;93.60;;;;;;5060244;28;20495;-49
2022/04/01 01:08:13;;;;;;;24.70;17.07;;;7.10;93.60;;;;;;5049779;28;20532;-49
2022/04/01 01:10:41;;;;;;;22.47;14.97;;;7.10;93.30;;;;;;5059945;28;20515;-49
2022/04/01 01:13:08;;;;;;;25.23;17.33;;;7.10;93.50;;;;;;5061648;28;21006;-49
2022/04/01 01:15:36;;;;;;;26.97;17.93;;;7.00;93.50;;;;;;5060264;28;20480;-49
2022/04/01 01:18:06;;;;;;;26.30;18.30;;;6.90;93.30;;;;;;5024270;28;20989;-49
2022/04/01 01:20:33;;;;;;;24.70;18.10;;;6.90;93.50;;;;;;5062808;28;20972;-49
2022/04/01 01:23:01;;;;;;;25.23;17.73;;;7.00;93.30;;;;;;5063560;28;20505;-49
2022/04/01 01:25:30;;;;;;;28.17;17.87;;;6.90;93.50;;;;;;5061619;28;21365;-49
2022/04/01 01:27:57;;;;;;;28.27;18.30;;;7.00;93.60;;;;;;5065229;28;21019;-49
2022/04/01 01:30:25;;;;;;;25.83;17.73;;;7.00;93.30;;;;;;5062975;28;21001;-49
2022/04/01 01:32:52;;;;;;;25.93;18.00;;;7.00;93.60;;;;;;5065080;28;21193;-48
2022/04/01 01:35:19;;;;;;;26.50;18.03;;;7.00;93.60;;;;;;5060739;28;20489;-46
2022/04/01 01:37:47;;;;;;;22.60;16.67;;;6.90;93.40;;;;;;5062182;28;20492;-47
2022/04/01 01:40:15;;;;;;;22.63;16.40;;;6.90;93.70;;;;;;5053447;28;20500;-47
2022/04/01 01:42:44;;;;;;;22.67;18.00;;;6.90;93.70;;;;;;5061646;28;20484;-47
2022/04/01 01:45:11;;;;;;;23.67;17.40;;;6.90;93.40;;;;;;5044002;28;21050;-48
2022/04/01 01:47:39;;;;;;;22.30;17.03;;;6.90;93.70;;;;;;5037106;28;20464;-48
2022/04/01 01:55:35;;;;;;;25.60;18.03;;;6.80;93.60;;;;;;5028262;28;20482;-47
2022/04/01 01:58:05;;;;;;;23.07;15.67;;;6.80;93.90;;;;;;5063775;28;20970;-48
2022/04/01 02:00:33;;;;;;;19.77;14.67;;;6.70;93.60;;;;;;5061285;28;20480;-48
2022/04/01 02:03:00;;;;;;;25.70;15.63;;;6.70;93.40;;;;;;5063275;28;20566;-48
2022/04/01 02:05:28;;;;;;;18.57;15.30;;;6.70;93.70;;;;;;5060132;28;20966;-48
2022/04/01 02:07:56;;;;;;;20.13;15.03;;;6.70;93.60;;;;;;5061261;28;21267;-48
2022/04/01 02:10:23;;;;;;;13.77;10.17;;;6.60;93.30;;;;;;5061076;28;20484;-48
2022/04/01 02:12:51;;;;;;;23.30;17.40;;;6.60;93.50;;;;;;5061152;28;20479;-48
2022/04/01 02:15:20;;;;;;;18.50;14.87;;;6.60;93.60;;;;;;5059668;28;20549;-49
2022/04/01 02:17:49;;;;;;;24.60;15.70;;;6.50;93.30;;;;;;5061527;28;20488;-47
2022/04/01 02:20:16;;;;;;;21.77;15.50;;;6.60;93.60;;;;;;5060558;28;20487;-48
2022/04/01 02:22:44;;;;;;;20.50;14.10;;;6.50;93.60;;;;;;5062393;28;20533;-50
2022/04/01 02:25:12;;;;;;;25.33;15.70;;;6.40;93.30;;;;;;5060197;28;20490;-48
2022/04/01 02:27:41;;;;;;;16.97;13.90;;;6.40;93.60;;;;;;5058929;28;20492;-47
2022/04/01 02:30:11;;;;;;;21.70;14.80;;;6.40;93.70;;;;;;5057607;28;20582;-48
2022/04/01 02:32:41;;;;;;;22.27;15.73;;;6.40;93.50;;;;;;5061036;28;20485;-48
2022/04/01 02:35:09;;;;;;;22.67;16.20;;;6.50;93.80;;;;;;5059314;28;20477;-47
2022/04/01 02:37:37;;;;;;;27.03;16.93;;;6.60;93.30;;;;;;5060564;28;20486;-48
2022/04/01 02:40:05;;;;;;;18.93;15.40;;;6.60;93.60;;;;;;5061079;28;20479;-47
2022/04/01 02:42:33;;;;;;;23.90;17.90;;;6.70;93.60;;;;;;5061496;28;20582;-48
2022/04/01 02:45:00;;;;;;;27.00;18.50;;;6.70;93.30;;;;;;5058140;28;21570;-48
2022/04/01 02:47:28;;;;;;;22.60;17.03;;;6.70;93.60;;;;;;5057011;28;20499;-49
2022/04/01 02:49:56;;;;;;;22.57;15.67;;;6.70;93.30;;;;;;5058946;28;20489;-47
2022/04/01 02:52:24;;;;;;;22.67;16.67;;;6.70;93.10;;;;;;5061255;28;20487;-48
2022/04/01 02:54:52;;;;;;;21.50;16.93;;;6.70;93.30;;;;;;5058354;28;20550;-48
2022/04/01 02:57:20;;;;;;;25.43;18.30;;;6.80;93.40;;;;;;5061011;28;20571;-48
2022/04/01 02:59:48;;;;;;;30.27;19.17;;;6.90;93.10;;;;;;5060658;28;20477;-53
2022/04/01 03:02:15;;;;;;;27.90;17.83;;;6.90;93.30;;;;;;5061478;28;20485;-48
2022/04/01 03:04:47;;;;;;;23.07;17.40;;;6.80;93.20;;;;;;5030511;28;20465;-48
2022/04/01 03:07:16;;;;;;;31.13;19.60;;;6.80;93.10;;;;;;5057986;28;20485;-48
2022/04/01 03:09:44;;;;;;;24.63;18.80;;;6.80;93.40;;;;;;5047209;28;20476;-48
2022/04/01 03:12:11;;;;;;;24.60;17.43;;;6.80;93.30;;;;;;5058893;28;20484;-49
2022/04/01 03:14:39;;;;;;;22.97;17.23;;;6.80;93.30;;;;;;5050909;28;20517;-49
2022/04/01 03:17:06;;;;;;;23.77;17.00;;;6.80;93.40;;;;;;5057575;28;20484;-48
2022/04/01 03:19:35;;;;;;;28.13;19.80;;;6.80;93.10;;;;;;5040578;28;20877;-49
2022/04/01 03:22:03;;;;;;;25.07;17.67;;;6.80;93.40;;;;;;5056306;28;20546;-48
2022/04/01 03:24:31;;;;;;;24.67;19.13;;;6.80;93.40;;;;;;5045389;28;20607;-48
2022/04/01 03:26:59;;;;;;;24.00;17.23;;;6.80;93.00;;;;;;5056915;28;20475;-48
2022/04/01 03:29:27;;;;;;;24.20;17.60;;;6.80;93.20;;;;;;5064530;28;21059;-48
2022/04/01 03:31:54;;;;;;;24.17;18.50;;;6.90;93.70;;;;;;5059957;28;20487;-48
2022/04/01 03:34:22;;;;;;;34.30;20.73;;;6.80;93.10;;;;;;5051339;28;20556;-49
2022/04/01 03:36:49;;;;;;;25.00;18.50;;;6.80;93.40;;;;;;5060829;28;20539;-48
2022/04/01 03:39:18;;;;;;;25.97;18.50;;;6.80;93.40;;;;;;5030651;28;20557;-48
2022/04/01 03:41:48;;;;;;;35.13;19.20;;;6.90;93.10;;;;;;5062210;28;21259;-48
2022/04/01 03:44:15;;;;;;;25.37;17.53;;;6.90;93.40;;;;;;5061060;28;20488;-48
2022/04/01 03:46:48;;;;;;;25.40;17.40;;;6.90;93.20;;;;;;5064207;28;20955;-48
2022/04/01 03:49:21;;;;;;;25.37;16.13;;;6.90;92.90;;;;;;5061124;28;20477;-48
2022/04/01 03:51:50;;;;;;;26.73;18.53;;;6.80;92.80;;;;;;5060502;28;20500;-48
2022/04/01 03:54:19;;;;;;;25.93;19.07;;;6.80;92.90;;;;;;5059921;28;20550;-48
2022/04/01 03:56:58;;;;;;;24.27;17.90;;;6.80;92.90;;;;;;5067716;28;20570;-49
2022/04/01 03:59:40;;;;;;;21.50;16.00;;;;;;;;;;5052087;28;20483;-49
2022/04/01 04:02:12;;;;;;;25.13;17.67;;;6.80;92.70;;;;;;5061327;28;21006;-48
2022/04/01 04:04:41;;;;;;;26.60;18.10;;;6.80;92.80;;;;;;5063261;28;20491;-48
2022/04/01 04:07:10;;;;;;;22.40;18.13;;;6.70;92.80;;;;;;5059542;28;21631;-48
2022/04/01 04:09:39;;;;;;;23.60;17.77;;;6.70;92.80;;;;;;5062236;28;20490;-49
2022/04/01 04:12:13;;;;;;;23.83;16.83;;;6.60;92.90;;;;;;5062975;28;20809;-48
2022/04/01 04:14:41;;;;;;;27.63;18.60;;;6.60;93.10;;;;;;5061026;28;20525;-48
2022/04/01 04:17:14;;;;;;;25.60;17.60;;;6.50;93.20;;;;;;5063566;28;20481;-48
2022/04/01 04:19:51;;;;;;;24.23;16.67;;;6.40;93.10;;;;;;5060059;28;20479;-48
2022/04/01 04:22:28;;;;;;;23.47;16.00;;;6.40;93.40;;;;;;5061660;28;20495;-48
2022/04/01 04:24:59;;;;;;;27.50;18.10;;;6.50;93.10;;;;;;5056836;28;20499;-48
2022/04/01 04:27:29;;;;;;;22.50;17.50;;;6.50;93.30;;;;;;5060772;28;20464;-48
2022/04/01 04:30:08;;;;;;;23.60;17.00;;;6.50;93.20;;;;;;5061143;28;20508;-48
2022/04/01 04:32:41;;;;;;;23.73;16.60;;;6.50;93.10;;;;;;5052665;28;20555;-48
2022/04/01 04:35:10;;;;;;;32.93;18.93;;;6.50;93.20;;;;;;5056886;28;20941;-49
2022/04/01 04:37:44;;;;;;;28.33;17.93;;;6.50;93.10;;;;;;5062757;28;20552;-49
2022/04/01 04:40:13;;;;;;;24.23;16.97;;;6.60;93.10;;;;;;5052054;28;20958;-49
2022/04/01 04:42:45;;;;;;;28.33;18.13;;;6.50;93.00;;;;;;5041240;28;20489;-48
2022/04/01 04:45:13;;;;;;;27.20;18.10;;;6.50;93.00;;;;;;5029069;28;20488;-49
2022/04/01 04:47:43;;;;;;;26.00;17.00;;;6.60;93.00;;;;;;5061127;28;20487;-48
2022/04/01 04:50:11;;;;;;;27.13;17.70;;;6.70;92.80;;;;;;5055176;28;20485;-48
2022/04/01 04:52:41;;;;;;;28.27;19.37;;;6.80;93.00;;;;;;5062740;28;20548;-48
2022/04/01 04:55:13;;;;;;;27.50;18.83;;;6.70;92.60;;;;;;5032127;28;20478;-48
2022/04/01 04:57:43;;;;;;;23.77;17.73;;;6.70;92.70;;;;;;5051185;28;20467;-48
2022/04/01 05:00:12;;;;;;;29.13;18.60;;;6.70;92.80;;;;;;5060329;28;20684;-49
2022/04/01 05:02:50;;;;;;;31.23;18.50;;;6.70;92.80;;;;;;5063271;28;20507;-48
2022/04/01 05:05:26;;;;;;;29.03;19.50;;;6.70;92.90;;;;;;5058963;28;20501;-48
2022/04/01 05:08:05;;;;;;;26.10;17.57;;;6.70;92.80;;;;;;5060861;28;20503;-48
2022/04/01 05:10:43;;;;;;;26.07;18.33;;;6.70;92.80;;;;;;5058405;28;20504;-48
2022/04/01 05:13:22;;;;;;;24.30;17.47;;;6.70;92.80;;;;;;5049815;28;20483;-47
2022/04/01 05:15:53;;;;;;;23.67;16.50;;;6.70;93.10;;;;;;5045921;28;20482;-47
2022/04/01 05:18:30;;;;;;;27.07;17.33;;;6.70;92.70;;;;;;5046066;28;20482;-47
2022/04/01 05:21:02;;;;;;;31.47;18.83;;;6.70;92.80;;;;;;5059158;28;20591;-48
2022/04/01 05:23:41;;;;;;;27.63;18.60;;;6.70;92.90;;;;;;5048486;28;20496;-48
2022/04/01 05:26:12;;;;;;;23.00;14.67;;;6.70;92.70;;;;;;5058269;28;20482;-47
2022/04/01 05:28:48;;;;;;;24.47;18.27;;;6.60;92.80;;;;;;5034083;28;20563;-47
2022/04/01 05:31:20;;;;;;;23.63;17.70;;;6.60;92.80;;;;;;5065433;28;20481;-49
2022/04/01 05:33:58;;;;;;;26.20;16.83;;;6.60;92.90;;;;;;5059728;28;20480;-47
2022/04/01 05:36:26;;;;;;;27.03;19.20;;;6.60;92.90;;;;;;5058411;28;20484;-47
2022/04/01 05:38:55;;;;;;;26.03;18.57;;;6.60;93.00;;;;;;5061463;28;20577;-48
2022/04/01 05:41:22;;;;;;;24.60;17.03;;;6.60;92.80;;;;;;5059494;28;20554;-47
2022/04/01 05:43:51;;;;;;;23.40;16.27;;;6.50;92.90;;;;;;5050204;28;20475;-48
2022/04/01 05:46:22;;;;;;;29.23;18.73;;;6.60;92.90;;;;;;5050117;28;20500;-47
2022/04/01 05:48:52;;;;;;;22.50;16.00;;;6.60;92.90;;;;;;5050021;28;20814;-48
2022/04/01 05:51:20;;;;;;;24.40;16.70;;;6.60;92.80;;;;;;5052856;28;21291;-48
2022/04/01 05:53:50;;;;;;;25.97;16.93;;;6.60;92.80;;;;;;5052718;28;20489;-48
2022/04/01 05:56:17;;;;;;;25.43;16.33;;;6.70;92.80;;;;;;5024569;28;20477;-48
2022/04/01 05:58:45;;;;;;;24.27;16.60;;;6.60;92.50;;;;;;5055086;28;20991;-47
2022/04/01 06:01:22;;;;;;;27.63;18.07;;;6.60;92.60;;;;;;5054236;28;20521;-47
2022/04/01 06:04:34;;;;;;;30.63;19.60;;;6.60;92.60;;;;;;5047472;28;20522;-49
2022/04/01 06:07:09;;;;;;;25.57;17.50;;;6.60;92.60;;;;;;5051681;28;20480;-49
2022/04/01 06:09:45;;;;;;;25.67;17.30;;;6.70;92.60;;;;;;5041422;28;20471;-49
2022/04/01 06:12:21;;;;;;;35.50;18.70;;;6.70;92.60;;;;;;5049350;28;20478;-50
2022/04/01 06:14:59;;;;;;;32.33;19.80;;;6.80;92.60;;;;;;5034760;28;21059;-49
2022/04/01 06:17:39;;;;;;;23.93;16.47;;;6.70;92.40;;;;;;5050473;28;20482;-49
2022/04/01 06:20:08;;;;;;;22.90;16.93;;;6.70;92.60;;;;;;5049395;28;20492;-48
2022/04/01 06:22:49;;;;;;;25.20;16.37;;;6.80;92.70;;;;;;5050926;28;20488;-49
2022/04/01 06:25:20;;;;;;;25.53;16.43;;;6.80;92.60;;;;;;5048580;28;20481;-49
2022/04/01 06:27:49;;;;;;;27.97;16.90;;;6.80;92.60;;;;;;5035812;28;20476;-49
2022/04/01 06:30:19;;;;;;;23.13;16.07;;;6.80;92.60;;;;;;5049579;28;21216;-49
2022/04/01 06:33:04;;;;;;;22.03;15.37;;;6.80;92.60;;;;;;5050442;28;20483;-48
2022/04/01 06:35:37;;;;;;;20.90;14.97;;;6.90;92.70;;;;;;5048449;28;20482;-49
2022/04/01 06:38:06;;;;;;;21.83;14.37;;;6.80;92.40;;;;;;5049207;28;20534;-49
2022/04/01 06:40:42;;;;;;;23.20;14.63;;;6.80;92.40;;;;;;5037173;28;20505;-49
2022/04/01 06:43:10;;;;;;;28.37;16.57;;;6.80;92.40;;;;;;5046759;28;20621;-48
2022/04/01 06:45:37;;;;;;;32.13;16.37;;;6.70;92.40;;;;;;5037516;28;20987;-48
2022/04/01 06:48:07;;;;;;;22.23;14.70;;;6.70;92.50;;;;;;5046057;28;20485;-48
2022/04/01 06:50:34;;;;;;;22.83;14.77;;;6.60;92.30;;;;;;5035833;28;20476;-48
2022/04/01 06:53:01;;;;;;;20.63;13.30;;;6.60;92.40;;;;;;5047745;28;20481;-48
2022/04/01 06:55:29;;;;;;;25.03;14.40;;;6.60;92.60;;;;;;5049493;28;20574;-48
2022/04/01 06:57:56;;;;;;;21.70;12.43;;;6.60;92.80;;;;;;5024072;28;20713;-48
2022/04/01 07:00:24;;;;;;;27.73;16.10;;;6.50;92.80;;;;;;5048511;28;20906;-48
2022/04/01 07:02:51;;;;;;;23.97;16.40;;;6.50;93.00;;;;;;5049616;28;21031;-49
2022/04/01 07:05:20;;;;;;;25.47;15.50;;;6.50;92.80;;;;;;5046588;28;20485;-48
2022/04/01 07:07:47;;;;;;;21.60;14.10;;;6.60;92.80;;;;;;5036321;28;20554;-48
2022/04/01 07:10:15;;;;;;;25.60;15.70;;;6.70;92.80;;;;;;5049440;28;20482;-49
2022/04/01 07:12:44;;;;;;;22.57;14.90;;;6.70;92.80;;;;;;5037761;28;20503;-48
2022/04/01 07:15:11;;;;;;;20.97;15.17;;;6.70;92.70;;;;;;5045994;28;20881;-48
2022/04/01 07:17:39;;;;;;;28.60;16.47;;;6.70;92.60;;;;;;5048435;28;20550;-48
2022/04/01 07:20:07;;;;;;;28.97;15.93;;;6.80;92.60;;;;;;5048339;28;21017;-48
2022/04/01 07:22:37;;;;;;;21.27;14.47;;;6.80;92.50;;;;;;5049967;28;20986;-49
2022/04/01 07:25:05;;;;;;;27.03;15.63;;;6.80;92.60;;;;;;5047477;28;20472;-48
2022/04/01 07:27:34;;;;;;;33.10;15.17;;;6.70;92.50;;;;;;5049940;28;21243;-48
2022/04/01 07:30:01;;;;;;;26.57;16.60;;;6.80;92.60;;;;;;5051416;28;20481;-48
2022/04/01 07:32:32;;;;;;;25.03;14.83;;;6.80;92.70;;;;;;5048986;28;20504;-49
2022/04/01 07:35:01;;;;;;;29.50;15.83;;;6.80;92.70;;;;;;5045869;28;20498;-48
2022/04/01 07:37:28;;;;;;;25.00;16.83;;;6.80;92.70;;;;;;5049138;28;20486;-49
2022/04/01 07:39:58;;;;;;;25.73;15.83;;;6.80;92.60;;;;;;5047851;28;20482;-48
2022/04/01 07:42:28;;;;;;;30.43;18.20;;;6.80;92.50;;;;;;5050646;28;20488;-48
2022/04/01 07:44:56;;;;;;;27.60;17.00;;;6.80;92.60;;;;;;5045397;28;20475;-48
2022/04/01 07:47:23;;;;;;;33.27;18.40;;;6.80;92.60;;;;;;5039899;28;20483;-49
2022/04/01 07:49:52;;;;;;;31.57;17.83;;;6.80;92.50;;;;;;5048610;28;20476;-48
2022/04/01 07:52:22;;;;;;;25.47;16.10;;;6.80;92.50;;;;;;5049554;28;20483;-48
2022/04/01 07:54:51;;;;;;;33.93;18.87;;;6.80;92.70;;;;;;5044628;28;20540;-48
2022/04/01 07:57:20;;;;;;;32.27;18.40;;;6.80;92.70;;;;;;5047939;28;20483;-48
2022/04/01 07:59:48;;;;;;;31.50;18.43;;;6.80;92.80;;;;;;5047525;28;20585;-49
2022/04/01 08:02:16;;;;;;;30.90;17.80;;;6.80;92.40;;;;;;5048288;28;20491;-49
2022/04/01 08:04:43;;;;;;;26.17;13.97;;;6.70;92.10;;;;;;5046804;28;20508;-49
2022/04/01 08:07:11;;;;;;;23.80;14.93;;;6.60;91.70;;;;;;5047843;28;21040;-49
2022/04/01 08:09:38;;;;;;;30.27;18.80;;;6.50;91.80;;;;;;5049345;28;20916;-48
2022/04/01 08:12:08;;;;;;;32.97;19.00;;;6.50;92.10;;;;;;5021354;28;20510;-48
2022/04/01 08:14:37;;;;;;;36.10;20.23;;;6.50;92.20;;;;;;5046938;28;20487;-48
2022/04/01 08:17:06;;;;;;;32.27;18.77;;;6.50;92.40;;;;;;5038131;28;20731;-48
2022/04/01 08:19:34;;;;;;;26.67;17.80;;;6.50;92.60;;;;;;5047678;28;20488;-48
2022/04/01 08:22:01;;;;;;;25.27;16.33;;;6.60;92.20;;;;;;5049221;28;20897;-48
2022/04/01 08:24:30;;;;;;;30.00;18.93;;;6.60;91.90;;;;;;5047075;28;20592;-48
2022/04/01 08:27:00;;;;;;;26.83;17.63;;;6.60;92.00;;;;;;5044800;28;20479;-48
2022/04/01 08:29:27;;;;;;;30.93;19.10;;;6.80;92.30;;;;;;5047867;28;20476;-48
2022/04/01 08:31:56;;;;;;;31.30;19.53;;;6.70;92.30;;;;;;5050487;28;20511;-48
2022/04/01 08:34:29;;;;;;;26.20;16.50;;;6.80;92.00;;;;;;5050407;28;20496;-49
2022/04/01 08:36:57;;;;;;;30.97;18.87;;;6.90;91.90;;;;;;5052301;28;20593;-48
2022/04/01 08:39:24;;;;;;;25.10;17.23;;;6.90;92.00;;;;;;5042312;28;20561;-49
2022/04/01 08:41:52;;;;;;;29.17;18.00;;;6.90;92.10;;;;;;5049943;28;20480;-49
2022/04/01 08:44:19;;;;;;;30.53;19.00;;;6.80;91.70;;;;;;5046460;28;20491;-49
2022/04/01 08:47:42;;;;;;;27.20;17.43;;;6.90;91.80;;;;;;5026701;28;20488;-51
2022/04/01 08:50:11;;;;;;;24.23;17.60;;;6.90;91.70;;;;;;5003989;28;20476;-50
2022/04/01 08:52:38;;;;;;;29.37;15.17;;;6.80;91.60;;;;;;5061349;28;20502;-49
2022/04/01 08:55:06;;;;;;;23.30;15.97;;;;;;;;;;5059796;28;20960;-49
2022/04/01 08:57:37;;;;;;;50.90;17.10;;;;;;;;;;5065163;28;21330;-49
2022/04/01 09:00:19;;;;;;;49.50;17.30;;;6.80;91.40;;;;;;5065833;28;20493;-49
2022/04/01 09:02:53;;;;;;;36.10;14.77;;;;;;;;;;5055550;28;20777;-50
2022/04/01 09:05:21;;;;;;;46.93;15.47;;;6.80;91.20;;;;;;5061903;28;20479;-49
2022/04/01 09:07:48;;;;;;;33.33;15.07;;;6.90;91.30;;;;;;5066170;28;20910;-49
2022/04/01 09:10:15;;;;;;;27.60;16.17;;;6.90;91.50;;;;;;5067953;28;20842;-49
2022/04/01 09:12:50;;;;;;;49.20;16.00;;;6.90;91.50;;;;;;5039318;28;20473;-49
2022/04/01 09:15:18;;;;;;;25.10;10.03;;;;;;;;;;5058810;28;20484;-50
2022/04/01 09:17:46;;;;;;;29.77;15.37;;;6.80;91.20;;;;;;5065879;28;20479;-49
2022/04/01 09:20:15;;;;;;;36.37;14.50;;;6.80;91.00;;;;;;5065337;28;20910;-49
2022/04/01 09:22:44;;;;;;;27.83;15.10;;;6.80;91.20;;;;;;5068156;28;20948;-49
2022/04/01 09:25:13;;;;;;;30.10;15.83;;;6.80;91.40;;;;;;5061375;28;20489;-49
2022/04/01 09:27:46;;;;;;;29.23;14.70;;;6.80;91.30;;;;;;5055331;28;20793;-53
2022/04/01 09:30:15;;;;;;;29.20;16.10;;;6.90;91.40;;;;;;5064155;28;20477;-48
2022/04/01 09:32:44;;;;;;;31.23;16.33;;;6.90;91.20;;;;;;5067303;28;20477;-49
2022/04/01 09:35:12;;;;;;;28.17;15.17;;;6.90;91.00;;;;;;5062533;28;20481;-49
2022/04/01 09:37:41;;;;;;;36.67;16.67;;;6.90;91.30;;;;;;5065879;28;21335;-49
2022/04/01 09:40:11;;;;;;;27.47;17.57;;;7.00;91.70;;;;;;5065141;28;20492;-49
2022/04/01 09:42:38;;;;;;;25.87;15.77;;;7.10;91.70;;;;;;5068251;28;20474;-48
2022/04/01 09:45:07;;;;;;;31.60;16.00;;;7.20;91.40;;;;;;5061512;28;20483;-48
2022/04/01 09:47:38;;;;;;;53.63;16.60;;;7.30;91.50;;;;;;5067074;28;20562;-48
2022/04/01 09:50:13;;;;;;;31.67;15.57;;;7.30;91.20;;;;;;5066532;28;20973;-48
2022/04/01 09:52:41;;;;;;;28.23;14.70;;;7.40;91.10;;;;;;5066276;28;20485;-47
2022/04/01 09:55:10;;;;;;;27.00;14.43;;;7.50;91.10;;;;;;5062846;28;20513;-48
2022/04/01 09:57:37;;;;;;;41.37;14.87;;;7.60;91.30;;;;;;5066754;28;20484;-48
2022/04/01 10:00:06;;;;;;;25.00;14.57;;;7.70;91.00;;;;;;5063237;28;20485;-48
2022/04/01 10:02:32;;;;;;;21.27;14.70;;;7.80;91.00;;;;;;5066578;28;20989;-48
2022/04/01 10:05:00;;;;;;;20.70;14.13;;;7.80;90.30;;;;;;5061787;28;20488;-48
2022/04/01 10:07:29;;;;;;;18.10;13.13;;;7.80;90.10;;;;;;5066280;28;20493;-48
2022/04/01 10:09:57;;;;;;;16.57;13.13;;;7.80;90.10;;;;;;5066633;28;20532;-48
2022/04/01 10:12:27;;;;;;;24.33;13.07;;;7.80;90.00;;;;;;5066582;28;20568;-49
2022/04/01 10:14:58;;;;;;;16.80;13.43;;;7.70;90.10;;;;;;5061560;28;20484;-48
2022/04/01 10:17:28;;;;;;;18.30;13.63;;;7.70;89.50;;;;;;5065049;28;20829;-48
2022/04/01 10:19:57;;;;;;;16.23;11.17;;;7.60;89.30;;;;;;5064781;28;20488;-48
2022/04/01 10:22:25;;;;;;;20.40;13.67;;;7.50;88.40;;;;;;5063008;28;20979;-47
2022/04/01 10:25:00;;;;;;;15.33;11.83;;;7.50;89.30;;;;;;5054038;28;20476;-48
2022/04/01 10:27:36;;;;;;;17.67;10.80;;;7.50;89.80;;;;;;5065440;28;20898;-48
2022/04/01 10:30:03;;;;;;;16.43;12.27;;;7.50;90.10;;;;;;5064180;28;20815;-48
2022/04/01 10:32:36;;;;;;;18.70;13.63;;;7.50;90.00;;;;;;5065526;28;20480;-48
2022/04/01 10:35:05;;;;;;;33.83;16.10;;;7.50;89.90;;;;;;5060011;28;20489;-48
2022/04/01 10:37:34;;;;;;;30.97;13.10;;;7.50;89.60;;;;;;5042145;28;20564;-48
2022/04/01 10:40:08;;;;;;;23.90;12.90;;;7.50;89.00;;;;;;5062740;28;20480;-48
2022/04/01 10:42:38;;;;;;;33.27;13.30;;;7.50;89.70;;;;;;5059920;28;20484;-48
2022/04/01 10:45:22;;;;;;;20.67;11.77;;;7.50;88.50;;;;;;5056423;28;20485;-49
2022/04/01 10:53:37;;;;;;;20.23;7.60;;;7.30;86.30;;;;;;4985129;28;21127;-48
2022/04/01 10:56:36;;;;;;;27.23;10.40;;;7.30;87.10;;;;;;5017940;28;20729;-48
2022/04/01 10:59:10;;;;;;;18.33;12.00;;;7.30;87.50;;;;;;5017571;28;21848;-48
2022/04/01 11:01:38;;;;;;;19.90;10.07;;;7.30;86.70;;;;;;5028787;28;20477;-48
2022/04/01 11:04:25;;;;;;;24.30;11.90;;;7.30;86.30;;;;;;5019745;28;20481;-48
2022/04/01 11:06:53;;;;;;;19.10;12.70;;;;;;;;;;5052376;28;20824;-48
2022/04/01 11:09:37;;;;;;;18.20;11.97;;;7.30;87.10;;;;;;5050369;28;20483;-48
2022/04/01 11:12:23;;;;;;;15.20;12.80;;;7.30;86.50;;;;;;5049511;28;20909;-48
2022/04/01 11:15:12;;;;;;;17.70;10.93;;;7.40;86.80;;;;;;5059583;28;20472;-48
2022/04/01 11:18:01;;;;;;;34.40;12.10;;;7.50;87.60;;;;;;5061702;28;20836;-48
2022/04/01 11:20:29;;;;;;;35.60;10.40;;;7.50;85.80;;;;;;5064184;28;20475;-52
2022/04/01 11:23:04;;;;;;;14.00;9.67;;;7.50;86.00;;;;;;5063265;28;20475;-47
2022/04/01 11:25:51;;;;;;;17.30;11.97;;;7.60;86.30;;;;;;5061414;28;20570;-48
2022/04/01 11:28:18;;;;;;;25.83;12.67;;;7.70;87.00;;;;;;5062117;28;21343;-48
2022/04/01 11:31:07;;;;;;;14.23;9.30;;;7.70;84.70;;;;;;5062631;28;20481;-47
2022/04/01 11:33:34;;;;;;;19.53;11.63;;;7.70;84.80;;;;;;5060671;28;20575;-49
2022/04/01 11:36:01;;;;;;;23.23;11.87;;;7.70;84.70;;;;;;5058968;28;20608;-52
2022/04/01 11:38:29;;;;;;;32.57;11.13;;;7.70;84.20;;;;;;5066510;28;20481;-48
2022/04/01 11:41:00;;;;;;;30.20;12.50;;;7.70;84.30;;;;;;5063973;28;20996;-48
2022/04/01 11:43:30;;;;;;;23.33;12.13;;;;;;;;;;5036108;28;21338;-48
2022/04/01 11:46:02;;;;;;;25.17;12.43;;;7.60;83.90;;;;;;5059821;28;20829;-48
2022/04/01 11:48:30;;;;;;;12.37;9.10;;;7.60;83.20;;;;;;5032448;28;20508;-48
2022/04/01 11:50:59;;;;;;;21.17;13.40;;;7.60;84.20;;;;;;5059032;28;20481;-48
2022/04/01 11:53:29;;;;;;;17.23;12.37;;;7.60;83.60;;;;;;5061704;28;21017;-48
2022/04/01 11:55:57;;;;;;;14.13;10.40;;;7.60;83.60;;;;;;5062170;28;20472;-48
2022/04/01 11:58:24;;;;;;;43.67;10.87;;;7.60;83.80;;;;;;5060961;28;20471;-48
2022/04/01 12:00:51;;;;;;;12.00;9.97;;;7.60;82.50;;;;;;5060424;28;20488;-48
2022/04/01 12:03:20;;;;;;;11.50;9.70;;;7.60;82.70;;;;;;5062433;28;20546;-48
2022/04/01 12:05:51;;;;;;;22.83;12.73;;;7.50;82.40;;;;;;5063310;28;20575;-48
2022/04/01 12:11:04;;;;;;;19.47;10.37;;;7.40;83.00;;;;;;5063580;28;20484;-48
2022/04/01 12:13:31;;;;;;;12.30;9.60;;;7.30;81.90;;;;;;5035151;28;20569;-48
2022/04/01 12:16:00;;;;;;;14.63;10.00;;;7.30;82.30;;;;;;5042271;28;20521;-48
2022/04/01 12:18:29;;;;;;;20.93;10.53;;;7.30;82.20;;;;;;5056404;28;20487;-47
2022/04/01 12:20:58;;;;;;;15.50;11.17;;;7.20;82.10;;;;;;5066016;28;20480;-48
2022/04/01 12:23:27;;;;;;;13.53;11.87;;;7.20;82.60;;;;;;5066421;28;20478;-48
2022/04/01 12:25:55;;;;;;;16.00;12.47;;;7.30;82.70;;;;;;5063320;28;20483;-48
2022/04/01 12:28:25;;;;;;;18.83;12.90;;;7.20;81.60;;;;;;5067628;28;20951;-47
2022/04/01 12:30:54;;;;;;;10.97;7.43;;;7.20;82.20;;;;;;5068127;28;20467;-48
2022/04/01 12:33:25;;;;;;;16.37;10.93;;;7.10;82.20;;;;;;5066474;28;20491;-48
2022/04/01 12:35:59;;;;;;;12.93;10.00;;;7.10;81.30;;;;;;5064148;28;21065;-48
2022/04/01 12:38:27;;;;;;;20.70;11.70;;;7.10;82.10;;;;;;5068933;28;20918;-48
2022/04/01 12:40:55;;;;;;;15.00;11.30;;;7.10;82.20;;;;;;5067451;28;20883;-48
2022/04/01 12:43:30;;;;;;;8.63;7.07;;;7.10;83.10;;;;;;5064403;28;20522;-48
2022/04/01 12:45:58;;;;;;;13.53;9.83;;;7.00;81.70;;;;;;5065504;28;20488;-48
2022/04/01 12:48:25;;;;;;;9.70;8.20;;;7.00;81.00;;;;;;5047753;28;20475;-48
2022/04/01 12:50:52;;;;;;;13.37;8.97;;;;;;;;;;5063708;28;20483;-48
2022/04/01 12:53:20;;;;;;;13.63;11.40;;;6.90;81.60;;;;;;5067389;28;20485;-48
2022/04/01 12:55:47;;;;;;;12.07;9.90;;;6.90;80.70;;;;;;5065232;28;20562;-48
2022/04/01 12:58:14;;;;;;;30.77;11.40;;;;;;;;;;5067751;28;20480;-48
2022/04/01 13:00:41;;;;;;;19.70;9.33;;;6.80;80.90;;;;;;5067767;28;21138;-48
2022/04/01 13:03:09;;;;;;;14.50;10.33;;;6.90;81.80;;;;;;5063540;28;20554;-48
2022/04/01 13:05:37;;;;;;;26.63;10.73;;;6.90;81.70;;;;;;5058171;28;20519;-47
2022/04/01 13:08:08;;;;;;;14.87;9.37;;;6.90;81.80;;;;;;5066208;28;21004;-47
2022/04/01 13:10:36;;;;;;;13.47;8.70;;;6.80;80.20;;;;;;5063051;28;20485;-47